»·PEaware :: BMM370 KSLC-KVCV

BMM370 :: KSLC-KVCV

FLIGHT INFORMATION

Flight Status: Arrived
Operator: Unknown
More flights by this operator :: More flights under this callsign
Pilot: Anonymous 32434 (32434)
Aircraft: BOEING 737-800
(B738)
More flights by this aircraft type
Origin: KSLC Salt Lake City Intl
United States
Destination: KVCV Socal Logistics
United States
More flights between these airports :: More routes between these airports
Route: +ZIONZ1 EHK BLD HEC V442 APLES
File this flight plan on PilotEdge
Remarks: RMK / CALLSIGN / / ATLASBLUE
Altitude:
(Current/Filed)
34,000ft
Speed:
(Current/Filed)
442kts
Departed: 13-Nov-20 09:59 AM
Arrived: 13-Nov-20 11:14 AM
Distance/Time
Traveled:
451nm/1:15
Distance/Time
To Go:
Arrived

Flight Plot

Page will automatically refresh every two minutes.

Flight plan parsing failed; only flown route is shown


Map Options




Map Legend


Flown Route
Filed Route
Departure Airport
Arrival Airport
Navaid (VOR, NDB)
Fix

Horizontal Profiles

Position Reports

Time Latitude Longitude Heading Altitude Ground
Speed
13-Nov-20 09:26 40.785565 -111.978041 227 4228ft 0kts
13-Nov-20 09:27 40.785565 -111.978041 227 4228ft 0kts
13-Nov-20 09:28 40.785565 -111.978041 227 4228ft 0kts
13-Nov-20 09:29 40.785565 -111.978041 227 4228ft 0kts
13-Nov-20 09:30 40.785565 -111.978041 227 4228ft 0kts
13-Nov-20 09:31 40.785565 -111.978041 227 4228ft 0kts
13-Nov-20 09:32 40.785565 -111.978041 227 4228ft 0kts
13-Nov-20 09:33 40.785565 -111.978041 227 4228ft 0kts
13-Nov-20 09:34 40.785565 -111.978041 227 4228ft 0kts
13-Nov-20 09:35 40.785565 -111.978041 227 4228ft 0kts
13-Nov-20 09:36 40.785565 -111.978041 227 4228ft 0kts
13-Nov-20 09:37 40.785565 -111.978041 227 4228ft 0kts
13-Nov-20 09:38 40.785565 -111.978041 227 4228ft 0kts
13-Nov-20 09:39 40.785565 -111.978041 227 4228ft 0kts
13-Nov-20 09:40 40.785565 -111.978041 227 4228ft 0kts
13-Nov-20 09:41 40.785629 -111.977949 227 4228ft 2kts
13-Nov-20 09:42 40.785911 -111.977292 269 4228ft 2kts
13-Nov-20 09:43 40.785638 -111.976637 331 4228ft 2kts
13-Nov-20 09:44 40.785376 -111.976537 355 4228ft 0kts
13-Nov-20 09:45 40.785376 -111.976537 355 4228ft 0kts
13-Nov-20 09:46 40.785376 -111.976537 355 4228ft 0kts
13-Nov-20 09:47 40.785376 -111.976537 355 4228ft 0kts
13-Nov-20 09:48 40.786560 -111.976694 353 4226ft 11kts
13-Nov-20 09:49 40.790471 -111.977151 355 4225ft 17kts
13-Nov-20 09:50 40.794902 -111.977660 353 4226ft 13kts
13-Nov-20 09:51 40.798051 -111.978027 355 4226ft 9kts
13-Nov-20 09:52 40.800036 -111.978261 355 4229ft 10kts
13-Nov-20 09:53 40.804677 -111.978787 354 4230ft 18kts
13-Nov-20 09:54 40.807238 -111.978849 48 4229ft 0kts
13-Nov-20 09:55 40.807238 -111.978849 48 4229ft 0kts
13-Nov-20 09:56 40.807238 -111.978849 48 4229ft 0kts
13-Nov-20 09:57 40.807280 -111.978785 51 4229ft 2kts
13-Nov-20 09:58 40.804485 -111.976535 173 4233ft 64kts
13-Nov-20 09:59 40.763363 -111.972679 172 5379ft 192kts
13-Nov-20 10:00 40.704137 -111.962200 171 8041ft 237kts
13-Nov-20 10:01 40.638305 -111.945936 171 11374ft 250kts
13-Nov-20 10:02 40.566542 -111.944998 197 13318ft 302kts
13-Nov-20 10:03 40.473535 -111.945226 181 15474ft 351kts
13-Nov-20 10:05 40.373951 -111.940964 183 18099ft 369kts
13-Nov-20 10:06 40.269378 -111.940527 189 20439ft 383kts
13-Nov-20 10:07 40.161494 -111.956084 191 22547ft 399kts
13-Nov-20 10:08 40.049175 -111.972643 191 24439ft 416kts
13-Nov-20 10:09 39.932350 -111.989610 191 26128ft 431kts
13-Nov-20 10:10 39.811380 -112.007241 191 27676ft 446kts
13-Nov-20 10:11 39.686534 -112.025431 191 29080ft 459kts
13-Nov-20 10:12 39.559062 -112.043844 191 30651ft 464kts
13-Nov-20 10:13 39.430895 -112.062327 191 32243ft 466kts
13-Nov-20 10:14 39.302114 -112.080467 191 33742ft 467kts
13-Nov-20 10:15 39.172202 -112.100460 199 34133ft 472kts
13-Nov-20 10:16 39.054914 -112.166844 213 34137ft 457kts
13-Nov-20 10:17 38.944039 -112.244279 214 34135ft 451kts
13-Nov-20 10:18 38.835497 -112.322252 213 34136ft 448kts
13-Nov-20 10:19 38.726602 -112.400841 214 34133ft 449kts
13-Nov-20 10:19 38.636007 -112.466188 214 34123ft 450kts
13-Nov-20 10:21 38.509226 -112.557448 214 34118ft 450kts
13-Nov-20 10:21 38.418320 -112.622603 214 34118ft 451kts
13-Nov-20 10:23 38.290530 -112.713892 213 34119ft 449kts
13-Nov-20 10:23 38.200077 -112.778305 213 34121ft 448kts
13-Nov-20 10:25 38.072668 -112.868765 214 34120ft 459kts
13-Nov-20 10:26 37.960485 -112.948136 214 34141ft 467kts
13-Nov-20 10:26 37.864607 -113.015699 215 34156ft 478kts
13-Nov-20 10:28 37.736468 -113.124869 224 34155ft 475kts
13-Nov-20 10:28 37.650451 -113.210930 225 34157ft 473kts
13-Nov-20 10:29 37.548112 -113.315267 225 34156ft 475kts
13-Nov-20 10:30 37.446705 -113.418931 226 34181ft 471kts
13-Nov-20 10:31 37.344921 -113.522779 226 34209ft 471kts
13-Nov-20 10:32 37.243211 -113.626349 226 34210ft 473kts
13-Nov-20 10:33 37.140830 -113.730225 225 34209ft 473kts
13-Nov-20 10:34 37.039552 -113.832573 224 34209ft 463kts
13-Nov-20 10:35 36.939446 -113.933301 222 34209ft 458kts
13-Nov-20 10:36 36.840465 -114.032786 223 34207ft 459kts
13-Nov-20 10:37 36.740722 -114.132549 222 34210ft 461kts
13-Nov-20 10:38 36.641118 -114.231814 222 34212ft 459kts
13-Nov-20 10:39 36.541512 -114.330692 222 34181ft 455kts
13-Nov-20 10:40 36.442241 -114.429011 222 34167ft 461kts
13-Nov-20 10:41 36.341417 -114.528461 223 34169ft 460kts
13-Nov-20 10:42 36.241357 -114.626888 222 34171ft 462kts
13-Nov-20 10:43 36.140836 -114.725389 222 34174ft 458kts
13-Nov-20 10:44 36.040963 -114.822940 222 34175ft 461kts
13-Nov-20 10:45 35.949485 -114.931450 230 34172ft 453kts
13-Nov-20 10:46 35.863002 -115.046213 232 34175ft 461kts
13-Nov-20 10:47 35.775664 -115.164009 233 34171ft 473kts
13-Nov-20 10:48 35.686338 -115.284700 234 34172ft 477kts
13-Nov-20 10:49 35.597258 -115.404783 234 34175ft 475kts
13-Nov-20 10:50 35.509251 -115.522982 234 33172ft 454kts
13-Nov-20 10:51 35.425966 -115.634543 234 31980ft 442kts
13-Nov-20 10:52 35.343905 -115.744166 233 30764ft 426kts
13-Nov-20 10:53 35.265217 -115.848863 233 29566ft 415kts
13-Nov-20 10:54 35.188333 -115.950783 233 28255ft 401kts
13-Nov-20 10:55 35.114119 -116.048960 233 26451ft 387kts
13-Nov-20 10:56 35.042080 -116.143934 232 24204ft 377kts
13-Nov-20 10:57 34.972188 -116.235758 230 22103ft 364kts
13-Nov-20 10:58 34.904436 -116.324537 229 19997ft 353kts
13-Nov-20 10:59 34.838419 -116.410449 229 17892ft 343kts
13-Nov-20 11:00 34.783451 -116.501773 246 15789ft 332kts
13-Nov-20 11:01 34.746926 -116.602557 247 13983ft 314kts
13-Nov-20 11:02 34.712437 -116.697502 246 13990ft 308kts
13-Nov-20 11:03 34.677851 -116.791477 246 13990ft 299kts
13-Nov-20 11:04 34.643665 -116.884362 246 13990ft 301kts
13-Nov-20 11:05 34.632143 -116.978826 290 13697ft 278kts
13-Nov-20 11:06 34.659957 -117.065032 291 11743ft 272kts
13-Nov-20 11:07 34.687204 -117.149192 291 9831ft 266kts
13-Nov-20 11:08 34.709937 -117.233520 282 7972ft 259kts
13-Nov-20 11:09 34.723642 -117.311905 281 7137ft 222kts
13-Nov-20 11:10 34.730493 -117.380451 250 6166ft 193kts
13-Nov-20 11:11 34.683223 -117.390119 167 4926ft 182kts
13-Nov-20 11:12 34.634997 -117.386811 185 3302ft 173kts
13-Nov-20 11:13 34.603093 -117.386665 179 2846ft 25kts
13-Nov-20 11:14 34.597317 -117.386516 181 2856ft 16kts
13-Nov-20 11:15 34.594887 -117.385373 90 2861ft 0kts
13-Nov-20 11:16 34.594806 -117.384000 119 2863ft 7kts
13-Nov-20 11:17 34.591954 -117.380413 134 2869ft 19kts
13-Nov-20 11:18 34.589765 -117.376498 47 2874ft 10kts
13-Nov-20 11:19 34.590257 -117.374065 135 2871ft 8kts
13-Nov-20 11:20 34.589762 -117.373466 135 2871ft 0kts
13-Nov-20 11:21 34.589762 -117.373466 135 2871ft 0kts
13-Nov-20 11:22 34.589762 -117.373466 135 2871ft 0kts

Navigation Log

Ident Type
Flight plan parsing failed, navigation log unavailable